Time;durP1;ratioP1;P1;durP2;ratioP2;P2;SDS_P1;SDS_P2;PMS_P1;PMS_P2;Temp;Humidity;BMP_temperature;BMP_pressure;BME280_temperature;BME280_humidity;BME280_pressure;Samples;Min_cycle;Max_cycle;Signal;HPM_P1;HPM_P2
2022/06/22 00:01:03;;;;;;;;;14.00;11.50;;;;;;;;4981760;28;8838;-80
2022/06/22 00:03:32;;;;;;;;;6.00;6.00;;;;;;;;4992383;28;9004;-81
2022/06/22 00:05:59;;;;;;;;;9.00;9.00;;;;;;;;4984871;28;8905;-79
2022/06/22 00:08:29;;;;;;;;;11.25;11.25;;;;;;;;4988024;28;8868;-81
2022/06/22 00:11:03;;;;;;;;;12.25;10.00;;;;;;;;4990818;28;8863;-81
2022/06/22 00:13:32;;;;;;;;;8.25;7.25;;;;;;;;4982903;28;8891;-81
2022/06/22 00:16:02;;;;;;;;;10.00;10.00;;;;;;;;4985302;28;8866;-81
2022/06/22 00:18:33;;;;;;;;;12.75;12.00;;;;;;;;4991821;28;8920;-80
2022/06/22 00:21:03;;;;;;;;;9.25;9.25;;;;;;;;4991440;28;8864;-80
2022/06/22 00:23:39;;;;;;;;;11.00;9.25;;;;;;;;4983087;28;8876;-80
2022/06/22 00:26:31;;;;;;;;;10.25;10.25;;;;;;;;4986426;28;8895;-78
2022/06/22 00:29:20;;;;;;;;;8.75;8.75;;;;;;;;4988102;28;8856;-80
2022/06/22 00:32:04;;;;;;;;;7.75;7.25;;;;;;;;4980413;28;8843;-80
2022/06/22 00:34:33;;;;;;;;;9.75;9.75;;;;;;;;4985934;28;8914;-81
2022/06/22 00:37:03;;;;;;;;;10.00;10.00;;;;;;;;4981085;28;8852;-79
2022/06/22 00:39:38;;;;;;;;;11.25;11.25;;;;;;;;4991912;28;8884;-81
2022/06/22 00:42:28;;;;;;;;;9.75;9.25;;;;;;;;4979722;28;8880;-80
2022/06/22 00:45:01;;;;;;;;;12.00;11.00;;;;;;;;4989629;28;8903;-80
2022/06/22 00:47:31;;;;;;;;;13.00;12.50;;;;;;;;4989741;28;8900;-81
2022/06/22 00:50:04;;;;;;;;;12.75;12.25;;;;;;;;4991398;28;8860;-80
2022/06/22 00:52:37;;;;;;;;;13.00;10.50;;;;;;;;4985872;28;8886;-81
2022/06/22 00:55:07;;;;;;;;;14.25;12.25;;;;;;;;4987565;28;8926;-80
2022/06/22 00:57:40;;;;;;;;;12.25;12.25;;;;;;;;4984928;28;9544;-80
2022/06/22 01:00:16;;;;;;;;;13.25;13.25;;;;;;;;4987801;28;8972;-81
2022/06/22 01:02:49;;;;;;;;;13.50;12.25;;;;;;;;4978625;28;8922;-80
2022/06/22 01:05:22;;;;;;;;;12.25;12.25;;;;;;;;4990559;28;8885;-80
2022/06/22 01:07:54;;;;;;;;;10.75;10.75;;;;;;;;4985875;28;8884;-80
2022/06/22 01:10:27;;;;;;;;;9.00;9.00;;;;;;;;4982255;28;8851;-81
2022/06/22 01:13:03;;;;;;;;;12.25;12.25;;;;;;;;4986387;28;9708;-80
2022/06/22 01:15:35;;;;;;;;;10.75;10.75;;;;;;;;4981404;28;8957;-81
2022/06/22 01:18:07;;;;;;;;;12.75;12.75;;;;;;;;4988736;28;8925;-80
2022/06/22 01:20:46;;;;;;;;;10.50;10.50;;;;;;;;4986895;28;9609;-79
2022/06/22 01:23:49;;;;;;;;;12.00;12.00;;;;;;;;4976146;28;8887;-78
2022/06/22 01:26:38;;;;;;;;;14.50;10.75;;;;;;;;4975153;28;8921;-79
2022/06/22 01:29:13;;;;;;;;;13.75;13.75;;;;;;;;4985624;28;8870;-80
2022/06/22 01:31:45;;;;;;;;;14.00;12.25;;;;;;;;4988031;28;8898;-81
2022/06/22 01:34:17;;;;;;;;;13.00;13.00;;;;;;;;4978082;28;8850;-80
2022/06/22 01:36:44;;;;;;;;;11.75;11.75;;;;;;;;4990011;28;8899;-79
2022/06/22 01:39:13;;;;;;;;;10.75;9.25;;;;;;;;4986461;28;10048;-79
2022/06/22 01:41:46;;;;;;;;;15.00;12.00;;;;;;;;4981249;28;8895;-79
2022/06/22 01:44:20;;;;;;;;;14.25;13.25;;;;;;;;4982987;28;8902;-80
2022/06/22 01:47:05;;;;;;;;;12.50;11.50;;;;;;;;4990736;28;8886;-80
2022/06/22 01:49:38;;;;;;;;;13.75;12.25;;;;;;;;4985016;28;8898;-80
2022/06/22 01:52:08;;;;;;;;;14.75;13.25;;;;;;;;4976419;28;8886;-80
2022/06/22 01:54:38;;;;;;;;;12.00;12.00;;;;;;;;4979775;28;8885;-80
2022/06/22 01:57:12;;;;;;;;;12.25;12.25;;;;;;;;4986159;28;8904;-80
2022/06/22 01:59:46;;;;;;;;;13.75;13.50;;;;;;;;4990445;28;8898;-80
2022/06/22 02:02:17;;;;;;;;;11.75;11.75;;;;;;;;4971826;28;8957;-80
2022/06/22 02:04:47;;;;;;;;;13.00;13.00;;;;;;;;4976814;28;8862;-80
2022/06/22 02:10:23;;;;;;;;;12.50;12.50;;;;;;;;4973246;28;9672;-80
2022/06/22 02:12:57;;;;;;;;;13.50;13.25;;;;;;;;4985375;28;8850;-80
2022/06/22 02:15:31;;;;;;;;;16.50;15.00;;;;;;;;4984256;28;8883;-80
2022/06/22 02:17:58;;;;;;;;;14.75;14.25;;;;;;;;4980912;28;8863;-80
2022/06/22 02:20:30;;;;;;;;;15.00;15.00;;;;;;;;4985535;28;8878;-80
2022/06/22 02:23:03;;;;;;;;;16.00;12.25;;;;;;;;4985568;28;9082;-81
2022/06/22 02:25:34;;;;;;;;;14.33;13.33;;;;;;;;4983444;28;8991;-81
2022/06/22 02:28:02;;;;;;;;;11.50;11.50;;;;;;;;4986430;28;9070;-80
2022/06/22 02:30:31;;;;;;;;;14.00;13.75;;;;;;;;4990537;28;8901;-79
2022/06/22 02:32:59;;;;;;;;;15.00;14.00;;;;;;;;4983121;28;9709;-79
2022/06/22 02:35:26;;;;;;;;;11.50;11.50;;;;;;;;4992759;28;9657;-79
2022/06/22 02:37:57;;;;;;;;;12.33;12.33;;;;;;;;4985198;28;9706;-79
2022/06/22 02:40:28;;;;;;;;;12.75;12.75;;;;;;;;4990740;28;8989;-80
2022/06/22 02:45:43;;;;;;;;;13.00;13.00;;;;;;;;4983526;28;8958;-79
2022/06/22 02:48:25;;;;;;;;;10.50;10.00;;;;;;;;4989593;28;8868;-79
2022/06/22 02:51:00;;;;;;;;;13.00;12.00;;;;;;;;4991038;28;8973;-80
2022/06/22 02:53:34;;;;;;;;;18.00;13.00;;;;;;;;4993061;28;8977;-80
2022/06/22 02:56:02;;;;;;;;;14.00;14.00;;;;;;;;4977151;28;9130;-80
2022/06/22 02:58:33;;;;;;;;;16.67;16.67;;;;;;;;4992364;28;9134;-79
2022/06/22 03:01:05;;;;;;;;;13.33;13.33;;;;;;;;4987168;28;9281;-80
2022/06/22 03:03:33;;;;;;;;;11.67;11.67;;;;;;;;4986031;28;9126;-79
2022/06/22 03:06:00;;;;;;;;;13.67;13.67;;;;;;;;4992457;28;9404;-79
2022/06/22 03:08:28;;;;;;;;;18.00;16.00;;;;;;;;4989549;28;9270;-79
2022/06/22 03:10:58;;;;;;;;;12.67;12.67;;;;;;;;4992034;28;9265;-79
2022/06/22 03:13:29;;;;;;;;;14.00;14.00;;;;;;;;4987713;28;9300;-78
2022/06/22 03:15:57;;;;;;;;;12.00;12.00;;;;;;;;4991021;28;9344;-79
2022/06/22 03:18:29;;;;;;;;;9.33;9.33;;;;;;;;4986759;28;9395;-79
2022/06/22 03:20:59;;;;;;;;;14.33;14.33;;;;;;;;4985992;28;9345;-79
2022/06/22 03:23:30;;;;;;;;;22.50;14.75;;;;;;;;4988184;28;9441;-79
2022/06/22 03:26:02;;;;;;;;;18.25;15.00;;;;;;;;4980436;28;9427;-79
2022/06/22 03:28:34;;;;;;;;;12.25;12.25;;;;;;;;4986812;28;9420;-79
2022/06/22 03:31:05;;;;;;;;;13.33;13.33;;;;;;;;4988179;28;9461;-79
2022/06/22 03:33:37;;;;;;;;;14.33;14.33;;;;;;;;4985937;28;9484;-79
2022/06/22 03:36:10;;;;;;;;;14.25;14.25;;;;;;;;4992560;28;9409;-79
2022/06/22 03:38:41;;;;;;;;;15.33;14.33;;;;;;;;4984939;28;9500;-79
2022/06/22 03:41:12;;;;;;;;;17.00;16.50;;;;;;;;4990368;28;9384;-79
2022/06/22 03:43:43;;;;;;;;;15.00;15.00;;;;;;;;4987786;28;9525;-78
2022/06/22 03:46:17;;;;;;;;;19.75;18.00;;;;;;;;4988662;28;9558;-79
2022/06/22 03:48:50;;;;;;;;;13.75;13.75;;;;;;;;4984740;28;9573;-80
2022/06/22 03:51:22;;;;;;;;;16.50;16.50;;;;;;;;4983491;28;9570;-80
2022/06/22 03:53:56;;;;;;;;;17.50;16.00;;;;;;;;4991118;28;9805;-80
2022/06/22 03:56:25;;;;;;;;;19.75;16.25;;;;;;;;4992911;28;9592;-80
2022/06/22 03:58:54;;;;;;;;;20.00;17.75;;;;;;;;4984360;28;10485;-80
2022/06/22 04:01:22;;;;;;;;;14.00;14.00;;;;;;;;4986664;28;9443;-81
2022/06/22 04:03:53;;;;;;;;;18.00;17.67;;;;;;;;4989678;28;9465;-81
2022/06/22 04:06:26;;;;;;;;;22.33;15.33;;;;;;;;4991821;28;9313;-81
2022/06/22 04:08:55;;;;;;;;;20.33;17.33;;;;;;;;4981599;28;9365;-81
2022/06/22 04:11:26;;;;;;;;;19.67;17.33;;;;;;;;4993696;28;9283;-81
2022/06/22 04:13:59;;;;;;;;;21.00;19.67;;;;;;;;4978764;28;9447;-81
2022/06/22 04:16:30;;;;;;;;;14.33;14.33;;;;;;;;4991721;28;9393;-80
2022/06/22 04:19:02;;;;;;;;;18.00;18.00;;;;;;;;4981906;28;9581;-81
2022/06/22 04:21:33;;;;;;;;;20.00;18.67;;;;;;;;4993756;28;9281;-80
2022/06/22 04:24:04;;;;;;;;;18.00;18.00;;;;;;;;4987345;28;9455;-80
2022/06/22 04:26:35;;;;;;;;;22.00;20.33;;;;;;;;4980117;28;9373;-81
2022/06/22 04:29:06;;;;;;;;;18.33;16.33;;;;;;;;4985098;28;9193;-83
2022/06/22 04:31:36;;;;;;;;;20.33;18.67;;;;;;;;4981587;28;9809;-82
2022/06/22 04:34:07;;;;;;;;;21.33;18.00;;;;;;;;4987596;28;9393;-83
2022/06/22 04:36:41;;;;;;;;;18.67;17.00;;;;;;;;4985380;28;9103;-84
2022/06/22 04:39:14;;;;;;;;;16.00;14.00;;;;;;;;4985895;28;9264;-83
2022/06/22 04:41:42;;;;;;;;;18.67;18.67;;;;;;;;4985398;28;9405;-82
2022/06/22 04:44:13;;;;;;;;;24.33;17.67;;;;;;;;4985673;28;9293;-82
2022/06/22 04:46:43;;;;;;;;;17.67;17.33;;;;;;;;4987273;28;9300;-81
2022/06/22 04:49:18;;;;;;;;;15.00;15.00;;;;;;;;4984717;28;9348;-81
2022/06/22 04:51:49;;;;;;;;;15.00;15.00;;;;;;;;4978556;28;9180;-82
2022/06/22 04:54:22;;;;;;;;;17.00;17.00;;;;;;;;4980477;28;9893;-81
2022/06/22 04:56:51;;;;;;;;;21.00;20.00;;;;;;;;4979901;28;9067;-79
2022/06/22 04:59:19;;;;;;;;;24.33;20.67;;;;;;;;4980204;28;8974;-81
2022/06/22 05:01:50;;;;;;;;;14.33;14.33;;;;;;;;4983604;28;9030;-80
2022/06/22 05:04:22;;;;;;;;;20.00;20.00;;;;;;;;4985132;28;8974;-87
2022/06/22 05:06:56;;;;;;;;;20.33;18.67;;;;;;;;4986850;28;8888;-89
2022/06/22 05:09:27;;;;;;;;;20.67;20.00;;;;;;;;4993534;28;9118;-90
2022/06/22 05:11:55;;;;;;;;;19.00;18.25;;;;;;;;4984727;28;9028;-93
2022/06/22 05:14:25;;;;;;;;;15.00;15.00;;;;;;;;4988870;28;8901;-91
2022/06/22 05:16:57;;;;;;;;;13.25;13.25;;;;;;;;4982167;28;8959;-91
2022/06/22 05:19:32;;;;;;;;;17.67;17.67;;;;;;;;4986318;28;8883;-80
2022/06/22 05:22:00;;;;;;;;;17.00;15.25;;;;;;;;4989361;28;8976;-94
2022/06/22 05:24:33;;;;;;;;;13.75;11.75;;;;;;;;4988700;28;8875;-92
2022/06/22 05:27:02;;;;;;;;;15.75;15.75;;;;;;;;4996488;28;8872;-92
2022/06/22 05:29:33;;;;;;;;;19.50;16.00;;;;;;;;4984263;28;8948;-95
2022/06/22 05:32:05;;;;;;;;;16.75;16.00;;;;;;;;4987915;28;8872;-89
2022/06/22 05:34:37;;;;;;;;;16.75;16.75;;;;;;;;4980000;28;9020;-82
2022/06/22 05:37:10;;;;;;;;;17.50;16.50;;;;;;;;4978588;28;8868;-86
2022/06/22 05:39:38;;;;;;;;;16.00;16.00;;;;;;;;4986876;28;8936;-87
2022/06/22 05:42:06;;;;;;;;;14.75;14.75;;;;;;;;4984037;28;8888;-83
2022/06/22 05:44:34;;;;;;;;;14.75;13.75;;;;;;;;4990141;28;8875;-85
2022/06/22 05:47:02;;;;;;;;;16.25;15.25;;;;;;;;4985111;28;9015;-80
2022/06/22 05:49:34;;;;;;;;;16.75;14.75;;;;;;;;4986762;28;8878;-85
2022/06/22 05:52:05;;;;;;;;;18.50;17.00;;;;;;;;4977220;28;8878;-81
2022/06/22 05:54:38;;;;;;;;;17.25;17.25;;;;;;;;4983555;28;9667;-91
2022/06/22 05:57:17;;;;;;;;;17.75;16.00;;;;;;;;4977532;28;9688;-87
2022/06/22 05:59:47;;;;;;;;;14.75;14.75;;;;;;;;4977733;28;8867;-93
2022/06/22 06:02:23;;;;;;;;;15.50;15.50;;;;;;;;4982597;28;8788;-84
2022/06/22 06:04:56;;;;;;;;;17.75;16.50;;;;;;;;4968415;28;8894;-79
2022/06/22 06:07:31;;;;;;;;;13.25;13.25;;;;;;;;4975769;28;8985;-81
2022/06/22 06:09:58;;;;;;;;;6.50;6.50;;;;;;;;4986962;28;10103;-81
2022/06/22 06:12:29;;;;;;;;;18.25;17.50;;;;;;;;4976137;28;8908;-78
2022/06/22 06:14:57;;;;;;;;;14.50;14.50;;;;;;;;4983353;28;9627;-81
2022/06/22 06:17:28;;;;;;;;;18.00;18.00;;;;;;;;4982691;28;9658;-85
2022/06/22 06:19:59;;;;;;;;;16.25;15.75;;;;;;;;4992702;28;9058;-81
2022/06/22 06:22:30;;;;;;;;;16.00;16.00;;;;;;;;4979310;28;8893;-88
2022/06/22 06:27:46;;;;;;;;;17.25;15.75;;;;;;;;4994004;28;8843;-78
2022/06/22 06:30:18;;;;;;;;;15.25;15.25;;;;;;;;4989786;28;8870;-77
2022/06/22 06:32:50;;;;;;;;;14.00;14.00;;;;;;;;4987456;28;8882;-76
2022/06/22 06:35:26;;;;;;;;;19.00;19.00;;;;;;;;4982443;28;8899;-79
2022/06/22 06:38:01;;;;;;;;;16.75;16.50;;;;;;;;4992319;28;8885;-82
2022/06/22 06:40:36;;;;;;;;;15.75;15.75;;;;;;;;4991129;28;8872;-75
2022/06/22 06:43:24;;;;;;;;;13.50;12.50;;;;;;;;4978495;28;8925;-77
2022/06/22 06:45:54;;;;;;;;;18.50;15.50;;;;;;;;4992803;28;8872;-75
2022/06/22 06:48:24;;;;;;;;;18.00;17.25;;;;;;;;4984989;28;8867;-74
2022/06/22 06:50:55;;;;;;;;;12.00;12.00;;;;;;;;4994639;28;8889;-73
2022/06/22 06:53:28;;;;;;;;;15.25;13.25;;;;;;;;4984976;28;8871;-74
2022/06/22 06:55:59;;;;;;;;;16.00;14.50;;;;;;;;4988759;28;9686;-75
2022/06/22 06:58:33;;;;;;;;;16.75;16.75;;;;;;;;4988315;28;8897;-74
2022/06/22 07:01:00;;;;;;;;;17.50;16.75;;;;;;;;4991483;28;8877;-74
2022/06/22 07:03:33;;;;;;;;;11.50;11.50;;;;;;;;4987799;28;8882;-74
2022/06/22 07:06:03;;;;;;;;;14.00;11.00;;;;;;;;4989798;28;8866;-74
2022/06/22 07:08:35;;;;;;;;;13.75;12.25;;;;;;;;4984151;28;8894;-74
2022/06/22 07:11:07;;;;;;;;;11.00;11.00;;;;;;;;4989748;28;8859;-74
2022/06/22 07:13:41;;;;;;;;;15.00;12.00;;;;;;;;4981045;28;8898;-74
2022/06/22 07:16:14;;;;;;;;;11.25;11.25;;;;;;;;4981751;28;8872;-75
2022/06/22 07:18:44;;;;;;;;;13.00;13.00;;;;;;;;4989031;28;8864;-73
2022/06/22 07:21:17;;;;;;;;;9.75;8.50;;;;;;;;4991698;28;8892;-74
2022/06/22 07:23:49;;;;;;;;;16.25;14.75;;;;;;;;4986896;28;9764;-73
2022/06/22 07:26:23;;;;;;;;;12.00;12.00;;;;;;;;4985231;28;8907;-74
2022/06/22 07:28:55;;;;;;;;;11.75;9.25;;;;;;;;4993168;28;8871;-73
2022/06/22 07:31:27;;;;;;;;;13.00;12.00;;;;;;;;4982976;28;8860;-75
2022/06/22 07:34:01;;;;;;;;;10.25;10.25;;;;;;;;4985739;28;8917;-75
2022/06/22 07:36:35;;;;;;;;;13.75;12.50;;;;;;;;4985890;28;8886;-74
2022/06/22 07:39:05;;;;;;;;;15.00;12.00;;;;;;;;4990118;28;8962;-75
2022/06/22 07:41:33;;;;;;;;;13.75;12.00;;;;;;;;4994921;28;8860;-76
2022/06/22 07:44:04;;;;;;;;;9.75;9.75;;;;;;;;4986257;28;8877;-76
2022/06/22 07:46:35;;;;;;;;;12.75;11.00;;;;;;;;4981777;28;8893;-74
2022/06/22 07:49:07;;;;;;;;;15.50;13.25;;;;;;;;4982234;28;8905;-75
2022/06/22 07:51:38;;;;;;;;;10.75;9.50;;;;;;;;4990341;28;8891;-74
2022/06/22 07:54:11;;;;;;;;;11.00;11.00;;;;;;;;4989002;28;8890;-75
2022/06/22 07:56:47;;;;;;;;;12.75;11.00;;;;;;;;4988346;28;8886;-74
2022/06/22 07:59:17;;;;;;;;;14.25;12.25;;;;;;;;4995647;28;8900;-74
2022/06/22 08:01:46;;;;;;;;;14.25;13.00;;;;;;;;4987836;28;8965;-74
2022/06/22 08:04:19;;;;;;;;;13.00;13.00;;;;;;;;4989744;28;8870;-74
2022/06/22 08:06:51;;;;;;;;;12.75;10.25;;;;;;;;4982409;28;8888;-75
2022/06/22 08:09:21;;;;;;;;;11.00;10.50;;;;;;;;4982480;28;8893;-75
2022/06/22 08:11:52;;;;;;;;;14.00;11.75;;;;;;;;4992572;28;8876;-75
2022/06/22 08:14:23;;;;;;;;;10.75;10.75;;;;;;;;4981694;28;8928;-79
2022/06/22 08:16:52;;;;;;;;;11.25;11.00;;;;;;;;4979312;28;8875;-78
2022/06/22 08:19:21;;;;;;;;;12.50;9.00;;;;;;;;4986022;28;8867;-79
2022/06/22 08:21:54;;;;;;;;;11.50;11.00;;;;;;;;4989951;28;8906;-78
2022/06/22 08:24:22;;;;;;;;;10.40;8.60;;;;;;;;4983216;28;8967;-79
2022/06/22 08:26:51;;;;;;;;;12.75;12.50;;;;;;;;4986766;28;10046;-73
2022/06/22 08:29:22;;;;;;;;;11.20;10.60;;;;;;;;4985646;28;8964;-72
2022/06/22 08:31:53;;;;;;;;;12.60;12.60;;;;;;;;4982856;28;8843;-73
2022/06/22 08:34:30;;;;;;;;;10.60;10.60;;;;;;;;4983347;28;9649;-73
2022/06/22 08:37:06;;;;;;;;;11.20;11.20;;;;;;;;4985768;28;8865;-73
2022/06/22 08:39:38;;;;;;;;;11.00;11.00;;;;;;;;4985227;28;8875;-74
2022/06/22 08:42:16;;;;;;;;;9.80;9.80;;;;;;;;4981203;28;8872;-73
2022/06/22 08:44:49;;;;;;;;;13.60;11.20;;;;;;;;4982382;28;8903;-73
2022/06/22 08:47:56;;;;;;;;;10.60;10.60;;;;;;;;4983556;28;8971;-73
2022/06/22 08:50:45;;;;;;;;;13.00;13.00;;;;;;;;4984749;28;8999;-73
2022/06/22 08:53:27;;;;;;;;;9.00;9.00;;;;;;;;4986201;28;8887;-72
2022/06/22 08:56:10;;;;;;;;;13.20;11.60;;;;;;;;4983598;28;8881;-72
2022/06/22 08:58:48;;;;;;;;;10.60;10.60;;;;;;;;4990849;28;8888;-73
2022/06/22 09:01:27;;;;;;;;;12.40;12.40;;;;;;;;4981807;28;8831;-73
2022/06/22 09:04:37;;;;;;;;;9.60;9.60;;;;;;;;4982829;28;8822;-73
2022/06/22 09:07:46;;;;;;;;;11.00;11.00;;;;;;;;4970522;28;8864;-73
2022/06/22 09:10:35;;;;;;;;;9.00;9.00;;;;;;;;4972510;28;8874;-76
2022/06/22 09:13:27;;;;;;;;;9.40;9.40;;;;;;;;4986031;28;8879;-76
2022/06/22 09:16:04;;;;;;;;;12.40;10.60;;;;;;;;4979605;28;8892;-76
2022/06/22 09:18:58;;;;;;;;;11.00;10.00;;;;;;;;4982926;28;8888;-77
2022/06/22 09:21:35;;;;;;;;;10.00;10.00;;;;;;;;4987500;28;8882;-74
2022/06/22 09:24:11;;;;;;;;;10.80;9.40;;;;;;;;4982292;28;8887;-74
2022/06/22 09:26:48;;;;;;;;;12.40;12.40;;;;;;;;4985115;28;8918;-77
2022/06/22 09:29:27;;;;;;;;;11.20;11.20;;;;;;;;4988229;28;8887;-76
2022/06/22 09:32:30;;;;;;;;;10.00;10.00;;;;;;;;4974580;28;8846;-78
2022/06/22 09:35:29;;;;;;;;;11.80;9.40;;;;;;;;4974674;28;8859;-73
2022/06/22 09:38:13;;;;;;;;;10.00;10.00;;;;;;;;4968983;28;8888;-75
2022/06/22 09:40:48;;;;;;;;;11.20;11.20;;;;;;;;4992068;28;8868;-73
2022/06/22 09:43:40;;;;;;;;;14.40;13.20;;;;;;;;4986164;28;9677;-76
2022/06/22 09:46:43;;;;;;;;;9.40;9.40;;;;;;;;4982726;28;9672;-74
2022/06/22 09:49:28;;;;;;;;;9.60;8.20;;;;;;;;4965335;28;8870;-76
2022/06/22 09:52:16;;;;;;;;;11.80;10.20;;;;;;;;4982839;28;9374;-74
2022/06/22 09:58:00;;;;;;;;;13.60;12.00;;;;;;;;4949155;28;9730;-75
2022/06/22 10:00:36;;;;;;;;;9.00;9.00;;;;;;;;4986108;28;8791;-74
2022/06/22 10:03:35;;;;;;;;;10.80;10.80;;;;;;;;4966291;28;8874;-75
2022/06/22 10:06:26;;;;;;;;;13.80;11.40;;;;;;;;4968845;28;8917;-74
2022/06/22 10:09:03;;;;;;;;;12.60;10.80;;;;;;;;4974908;28;8865;-75
2022/06/22 10:11:38;;;;;;;;;10.40;10.20;;;;;;;;4968018;28;8921;-73
2022/06/22 10:14:33;;;;;;;;;8.80;8.80;;;;;;;;4970493;28;8862;-73
2022/06/22 10:17:20;;;;;;;;;11.60;11.40;;;;;;;;4978461;28;8968;-77
2022/06/22 10:19:59;;;;;;;;;8.20;8.20;;;;;;;;4983994;28;8882;-73
2022/06/22 10:22:42;;;;;;;;;11.80;10.20;;;;;;;;4986622;28;8966;-73
2022/06/22 10:25:39;;;;;;;;;11.40;10.80;;;;;;;;4979016;28;8905;-74
2022/06/22 10:28:45;;;;;;;;;10.60;10.60;;;;;;;;4972780;28;8880;-73
2022/06/22 10:31:26;;;;;;;;;8.20;8.20;;;;;;;;4941664;28;8852;-73
2022/06/22 10:34:18;;;;;;;;;9.00;9.00;;;;;;;;4929207;28;8908;-75
2022/06/22 10:37:29;;;;;;;;;13.80;11.80;;;;;;;;4977039;28;9605;-73
2022/06/22 10:46:32;;;;;;;;;9.00;9.00;;;;;;;;4900700;29;8861;-74
2022/06/22 10:49:28;;;;;;;;;11.20;9.40;;;;;;;;4967961;28;9628;-75
2022/06/22 10:52:34;;;;;;;;;11.40;11.40;;;;;;;;4972845;28;9010;-75
2022/06/22 10:55:34;;;;;;;;;9.20;8.80;;;;;;;;4943944;28;9002;-74
2022/06/22 10:58:13;;;;;;;;;10.00;10.00;;;;;;;;4975660;28;9754;-75
2022/06/22 11:00:51;;;;;;;;;11.20;11.20;;;;;;;;4976171;28;8942;-76
2022/06/22 11:03:50;;;;;;;;;11.60;11.40;;;;;;;;4979476;28;8886;-75
2022/06/22 11:06:46;;;;;;;;;11.00;11.00;;;;;;;;4987253;28;8884;-74
2022/06/22 11:09:39;;;;;;;;;11.00;11.00;;;;;;;;4986588;28;8896;-76
2022/06/22 11:12:24;;;;;;;;;11.60;10.00;;;;;;;;4989117;28;8905;-77
2022/06/22 11:15:30;;;;;;;;;12.40;10.80;;;;;;;;4987176;28;8944;-77
2022/06/22 11:18:11;;;;;;;;;9.60;9.60;;;;;;;;4984215;28;8899;-77
2022/06/22 11:20:52;;;;;;;;;10.20;9.60;;;;;;;;4987048;28;8911;-75
2022/06/22 11:23:33;;;;;;;;;8.80;8.80;;;;;;;;4983088;28;8868;-74
2022/06/22 11:32:23;;;;;;;;;10.80;10.80;;;;;;;;4986700;28;8815;-73
2022/06/22 11:35:38;;;;;;;;;11.40;8.00;;;;;;;;4981842;28;9014;-73
2022/06/22 11:38:35;;;;;;;;;8.60;8.60;;;;;;;;4979676;28;8891;-74
2022/06/22 11:41:12;;;;;;;;;10.60;10.60;;;;;;;;4976034;28;8884;-73
2022/06/22 11:44:07;;;;;;;;;11.00;11.00;;;;;;;;4978012;28;8993;-74
2022/06/22 11:46:38;;;;;;;;;12.20;10.80;;;;;;;;4983003;28;8863;-73
2022/06/22 11:49:40;;;;;;;;;10.60;10.60;;;;;;;;4980433;28;8982;-74
2022/06/22 11:52:48;;;;;;;;;9.40;9.40;;;;;;;;4979985;28;8895;-74
2022/06/22 11:55:25;;;;;;;;;12.20;12.20;;;;;;;;4978725;28;8835;-74
2022/06/22 11:58:19;;;;;;;;;12.60;10.80;;;;;;;;4980633;28;9053;-76
2022/06/22 12:00:57;;;;;;;;;11.40;9.00;;;;;;;;4975407;28;9650;-77
2022/06/22 12:03:45;;;;;;;;;12.80;11.00;;;;;;;;4978376;28;8975;-78
2022/06/22 12:06:37;;;;;;;;;12.20;10.20;;;;;;;;4977527;28;8875;-76
2022/06/22 12:09:16;;;;;;;;;11.20;10.60;;;;;;;;4978384;28;8882;-78
2022/06/22 12:11:52;;;;;;;;;9.60;9.60;;;;;;;;4979538;28;8999;-78
2022/06/22 12:17:26;;;;;;;;;9.80;9.80;;;;;;;;4975347;28;8875;-77
2022/06/22 12:20:02;;;;;;;;;12.60;11.20;;;;;;;;4979960;28;8842;-81
2022/06/22 12:22:43;;;;;;;;;10.60;9.20;;;;;;;;4978863;28;8887;-76
2022/06/22 12:25:27;;;;;;;;;7.60;7.60;;;;;;;;4983941;28;8987;-76
2022/06/22 12:28:01;;;;;;;;;14.60;13.00;;;;;;;;4980280;28;8881;-77
2022/06/22 12:30:41;;;;;;;;;10.60;10.60;;;;;;;;4984463;28;8942;-76
2022/06/22 12:33:15;;;;;;;;;11.80;11.80;;;;;;;;4981246;28;8854;-79
2022/06/22 12:35:48;;;;;;;;;12.80;12.80;;;;;;;;4981474;28;8993;-77
2022/06/22 12:38:22;;;;;;;;;11.80;11.80;;;;;;;;4979824;28;9078;-76
2022/06/22 12:41:00;;;;;;;;;13.40;13.40;;;;;;;;4988709;28;8990;-83
2022/06/22 12:43:59;;;;;;;;;11.60;11.00;;;;;;;;4986796;28;8998;-82
2022/06/22 12:46:43;;;;;;;;;11.20;9.80;;;;;;;;4972829;28;8862;-79
2022/06/22 12:49:23;;;;;;;;;12.00;12.00;;;;;;;;4983153;28;8997;-82
2022/06/22 12:51:54;;;;;;;;;11.40;11.40;;;;;;;;4986039;28;8869;-87
2022/06/22 12:54:27;;;;;;;;;11.80;11.40;;;;;;;;4983486;28;9009;-85
2022/06/22 12:57:00;;;;;;;;;13.20;13.20;;;;;;;;4983217;28;8883;-80
2022/06/22 12:59:32;;;;;;;;;11.60;10.60;;;;;;;;4979981;28;8866;-79
2022/06/22 13:01:59;;;;;;;;;13.20;10.60;;;;;;;;4973324;28;8819;-79
2022/06/22 13:04:29;;;;;;;;;9.20;9.20;;;;;;;;4977809;28;8888;-77
2022/06/22 13:07:01;;;;;;;;;12.00;12.00;;;;;;;;4980269;28;8868;-80
2022/06/22 13:09:32;;;;;;;;;13.80;11.80;;;;;;;;4980460;28;8884;-78
2022/06/22 13:12:02;;;;;;;;;10.40;8.80;;;;;;;;4975974;28;8988;-78
2022/06/22 13:14:34;;;;;;;;;10.00;10.00;;;;;;;;4974025;28;9039;-79
2022/06/22 13:17:14;;;;;;;;;10.80;10.80;;;;;;;;4980025;28;8977;-84
2022/06/22 13:19:47;;;;;;;;;10.00;10.00;;;;;;;;4978054;28;9004;-80
2022/06/22 13:22:22;;;;;;;;;14.00;12.40;;;;;;;;4977245;28;8893;-78
2022/06/22 13:24:58;;;;;;;;;9.80;9.80;;;;;;;;4975565;28;8859;-77
2022/06/22 13:27:34;;;;;;;;;12.80;11.20;;;;;;;;4975450;28;9842;-81
2022/06/22 13:30:11;;;;;;;;;10.00;9.20;;;;;;;;4975927;28;9645;-79
2022/06/22 13:32:40;;;;;;;;;8.60;8.60;;;;;;;;4973283;28;8906;-77
2022/06/22 13:35:09;;;;;;;;;11.20;11.20;;;;;;;;4976861;28;8876;-79
2022/06/22 13:37:43;;;;;;;;;7.00;7.00;;;;;;;;4978573;28;9006;-76
2022/06/22 13:40:26;;;;;;;;;10.40;9.80;;;;;;;;4982683;28;8916;-80
2022/06/22 13:43:12;;;;;;;;;9.60;9.60;;;;;;;;4979069;28;8867;-78
2022/06/22 13:45:54;;;;;;;;;9.60;9.60;;;;;;;;4979778;28;8931;-80
2022/06/22 13:48:26;;;;;;;;;11.80;10.80;;;;;;;;4984297;28;8974;-81
2022/06/22 13:51:34;;;;;;;;;10.80;10.80;;;;;;;;4979277;28;8898;-80
2022/06/22 13:54:26;;;;;;;;;10.00;10.00;;;;;;;;4977881;28;9008;-76
2022/06/22 13:57:02;;;;;;;;;11.20;11.20;;;;;;;;4992898;28;9054;-81
2022/06/22 13:59:35;;;;;;;;;11.60;11.60;;;;;;;;4977881;28;8857;-78
2022/06/22 14:02:14;;;;;;;;;10.80;10.80;;;;;;;;4977653;28;9764;-84
2022/06/22 14:04:45;;;;;;;;;11.60;10.60;;;;;;;;4967263;28;8883;-77
2022/06/22 14:07:16;;;;;;;;;9.60;9.60;;;;;;;;4965739;28;8989;-76
2022/06/22 14:09:50;;;;;;;;;11.20;10.80;;;;;;;;4972301;28;8912;-79
2022/06/22 14:12:22;;;;;;;;;10.40;10.40;;;;;;;;4970227;28;8991;-78
2022/06/22 14:14:59;;;;;;;;;13.00;11.60;;;;;;;;4981968;28;8902;-80
2022/06/22 14:17:31;;;;;;;;;13.00;12.00;;;;;;;;4990106;28;8897;-75
2022/06/22 14:20:10;;;;;;;;;13.40;13.40;;;;;;;;4984758;28;9022;-76
2022/06/22 14:22:41;;;;;;;;;11.60;11.60;;;;;;;;4984040;28;8916;-81
2022/06/22 14:25:15;;;;;;;;;9.60;9.60;;;;;;;;4980669;28;9028;-81
2022/06/22 14:27:52;;;;;;;;;14.20;11.60;;;;;;;;4973144;28;8949;-82
2022/06/22 14:30:24;;;;;;;;;10.40;10.00;;;;;;;;4978116;28;8873;-86
2022/06/22 14:33:14;;;;;;;;;14.20;12.40;;;;;;;;4984829;28;8945;-78
2022/06/22 14:35:51;;;;;;;;;10.80;10.80;;;;;;;;4988238;28;8915;-75
2022/06/22 14:38:24;;;;;;;;;9.60;9.40;;;;;;;;4983846;28;9764;-81
2022/06/22 14:41:21;;;;;;;;;8.60;8.60;;;;;;;;4984255;28;9641;-79
2022/06/22 14:43:58;;;;;;;;;10.80;10.80;;;;;;;;4972207;28;8866;-77
2022/06/22 14:46:36;;;;;;;;;10.00;10.00;;;;;;;;4977222;28;8907;-79
2022/06/22 14:49:09;;;;;;;;;13.00;11.60;;;;;;;;4980468;28;8886;-80
2022/06/22 14:51:42;;;;;;;;;10.00;8.40;;;;;;;;4978353;28;8891;-78
2022/06/22 14:54:18;;;;;;;;;8.00;8.00;;;;;;;;4981405;28;9786;-82
2022/06/22 14:56:48;;;;;;;;;9.80;8.60;;;;;;;;4983909;28;8865;-81
2022/06/22 14:59:25;;;;;;;;;8.80;8.80;;;;;;;;4978550;28;8856;-78
2022/06/22 15:01:57;;;;;;;;;9.20;9.20;;;;;;;;4984448;28;8824;-77
2022/06/22 15:04:34;;;;;;;;;6.40;6.40;;;;;;;;4981000;28;8874;-80
2022/06/22 15:07:17;;;;;;;;;9.20;9.20;;;;;;;;4987703;28;8883;-76
2022/06/22 15:09:51;;;;;;;;;7.00;7.00;;;;;;;;4982590;28;8985;-79
2022/06/22 15:15:21;;;;;;;;;10.20;10.00;;;;;;;;4984282;28;8977;-78
2022/06/22 15:17:56;;;;;;;;;10.00;10.00;;;;;;;;4979653;28;8906;-77
2022/06/22 15:20:29;;;;;;;;;9.60;8.80;;;;;;;;4987649;28;8866;-74
2022/06/22 15:23:06;;;;;;;;;9.00;9.00;;;;;;;;4985445;28;8949;-77
2022/06/22 15:25:38;;;;;;;;;10.40;8.60;;;;;;;;4982340;28;8894;-78
2022/06/22 15:28:13;;;;;;;;;7.20;7.20;;;;;;;;4985488;28;8858;-79
2022/06/22 15:30:47;;;;;;;;;12.40;9.20;;;;;;;;4979226;28;8929;-77
2022/06/22 15:33:19;;;;;;;;;9.60;9.60;;;;;;;;4984912;28;8887;-78
2022/06/22 15:35:57;;;;;;;;;12.40;10.80;;;;;;;;4982065;28;8901;-79
2022/06/22 15:38:37;;;;;;;;;10.40;10.40;;;;;;;;4983553;28;9470;-79
2022/06/22 15:41:07;;;;;;;;;9.00;7.80;;;;;;;;4975537;28;8966;-79
2022/06/22 15:43:55;;;;;;;;;9.60;9.60;;;;;;;;4985620;28;8879;-77
2022/06/22 15:46:32;;;;;;;;;10.40;9.20;;;;;;;;4980689;28;8866;-76
2022/06/22 15:49:08;;;;;;;;;11.00;11.00;;;;;;;;4983103;28;8883;-75
2022/06/22 15:51:41;;;;;;;;;10.00;8.40;;;;;;;;4983568;28;8993;-76
2022/06/22 15:54:19;;;;;;;;;9.80;9.80;;;;;;;;4984170;28;8987;-75
2022/06/22 15:56:56;;;;;;;;;10.40;10.40;;;;;;;;4982697;28;8938;-75
2022/06/22 15:59:34;;;;;;;;;10.80;10.80;;;;;;;;4986260;28;8878;-77